ENXN weather

Jotun A Platform
Norway

Public forecast

Using degrees Celsius for public forecast. Weather courtesy of forecast.io.

Closest aviation weather report (METAR) to Jotun A Platform

Closest report is Ula Platform, 25.2 nm (46.6 km) SE. Retrieved 2019/11/15 09:20 UTC (0 seconds ago):

ENLA 150920Z AUTO 07023KT 9999NDV FEW021/// 09/04 Q1015 W///S4

Closest aviation forecast (TAF) to Jotun A Platform

Closest forecast is Oseberg A Platform, 64.0 nm (118.5 km) NNE. Retrieved 2019/11/15 09:57 UTC (0 seconds ago):

TAF TAF ENOA 150800Z 1509/1609 03012KT 9999 -SHRA SCT015 BKN050